Time;durP1;ratioP1;P1;durP2;ratioP2;P2;SDS_P1;SDS_P2;PMS_P1;PMS_P2;Temp;Humidity;BMP_temperature;BMP_pressure;BME280_temperature;BME280_humidity;BME280_pressure;Samples;Min_cycle;Max_cycle;Signal;HPM_P1;HPM_P2
2023/03/09 00:01:36;;;;;;;63.42;30.65;;;;;;;3.64;100.00;98175.78;5052286;28;20029;-80
2023/03/09 00:04:02;;;;;;;63.25;31.55;;;;;;;3.69;100.00;98190.44;5052272;28;20417;-79
2023/03/09 00:06:28;;;;;;;65.95;31.88;;;;;;;3.66;100.00;98189.41;5052094;28;20043;-80
2023/03/09 00:08:53;;;;;;;64.28;31.90;;;;;;;3.59;100.00;98170.06;5050995;28;20119;-81
2023/03/09 00:11:19;;;;;;;64.55;31.33;;;;;;;3.45;100.00;98148.38;5051649;28;20078;-80
2023/03/09 00:13:46;;;;;;;58.63;30.65;;;;;;;3.72;100.00;98184.59;5054249;28;20013;-80
2023/03/09 00:16:17;;;;;;;65.10;31.38;;;;;;;3.69;100.00;98191.22;5053884;28;20025;-80
2023/03/09 00:18:43;;;;;;;64.32;32.08;;;;;;;3.67;100.00;98190.19;5052942;28;20537;-80
2023/03/09 00:21:14;;;;;;;58.35;32.60;;;;;;;3.65;100.00;98197.09;5053996;28;20106;-80
2023/03/09 00:23:41;;;;;;;65.82;32.78;;;;;;;3.70;100.00;98200.47;5052588;28;20025;-80
2023/03/09 00:26:07;;;;;;;60.13;31.42;;;;;;;3.68;100.00;98192.50;5053930;28;20029;-81
2023/03/09 00:28:34;;;;;;;64.60;32.50;;;;;;;3.70;100.00;98192.00;5053086;28;20037;-80
2023/03/09 00:31:05;;;;;;;60.83;31.95;;;;;;;3.49;100.00;98168.69;5052314;28;20021;-81
2023/03/09 00:33:30;;;;;;;75.32;33.83;;;;;;;3.53;100.00;98157.94;5051894;28;20032;-80
2023/03/09 00:35:56;;;;;;;60.83;30.70;;;;;;;3.55;100.00;98163.88;5051350;28;20032;-79
2023/03/09 00:38:21;;;;;;;60.95;31.70;;;;;;;3.71;100.00;98188.69;5050955;28;20154;-81
2023/03/09 00:40:47;;;;;;;72.65;35.22;;;;;;;3.67;100.00;98188.13;5051265;28;20400;-80
2023/03/09 00:43:12;;;;;;;71.03;33.30;;;;;;;3.63;100.00;98184.75;5051364;28;20041;-81
2023/03/09 00:45:38;;;;;;;60.58;31.98;;;;;;;3.65;100.00;98185.03;5051602;28;20025;-79
2023/03/09 00:48:03;;;;;;;60.80;31.92;;;;;;;3.66;100.00;98189.41;5051344;28;20025;-79
2023/03/09 00:50:29;;;;;;;68.18;31.67;;;;;;;3.44;100.00;98152.47;5050174;28;20021;-80
2023/03/09 00:52:54;;;;;;;62.53;31.52;;;;;;;3.53;100.00;98167.19;5052617;28;20029;-79
2023/03/09 00:55:19;;;;;;;76.78;36.15;;;;;;;3.59;100.00;98170.06;5053288;28;20063;-79
2023/03/09 00:57:46;;;;;;;63.38;32.28;;;;;;;3.61;100.00;98173.97;5052334;28;20076;-77
2023/03/09 01:00:12;;;;;;;72.10;30.92;;;;;;;3.59;100.00;98172.91;5053126;28;20033;-78
2023/03/09 01:02:37;;;;;;;64.97;30.58;;;;;;;3.60;100.00;98171.63;5052893;28;20489;-79
2023/03/09 01:05:03;;;;;;;61.47;31.20;;;;;;;3.58;100.00;98162.88;5053061;28;20033;-79
2023/03/09 01:07:30;;;;;;;58.10;31.25;;;;;;;3.39;100.00;98139.06;5053060;28;20025;-79
2023/03/09 01:09:55;;;;;;;69.43;33.88;;;;;;;3.56;100.00;98162.59;5051957;28;20085;-79
2023/03/09 01:12:21;;;;;;;61.78;30.25;;;;;;;3.55;100.00;98155.41;5053184;28;20033;-80
2023/03/09 01:14:48;;;;;;;65.75;31.05;;;;;;;3.40;100.00;98121.63;5053228;28;20104;-79
2023/03/09 01:17:13;;;;;;;64.18;32.53;;;;;;;3.31;100.00;98104.88;5052849;28;20029;-80
2023/03/09 01:19:39;;;;;;;64.13;29.33;;;;;;;3.42;100.00;98109.84;5051635;28;20031;-80
2023/03/09 01:22:04;;;;;;;57.00;28.02;;;;;;;3.55;100.00;98118.69;5053175;28;20057;-79
2023/03/09 01:24:30;;;;;;;62.65;31.02;;;;;;;3.57;100.00;98121.81;5053157;28;20037;-79
2023/03/09 01:26:55;;;;;;;65.10;33.10;;;;;;;3.61;100.00;98122.34;5053015;28;20048;-78
2023/03/09 01:29:21;;;;;;;67.82;32.92;;;;;;;3.56;100.00;98114.59;5053104;28;20025;-78
2023/03/09 01:31:46;;;;;;;60.13;29.13;;;;;;;3.56;100.00;98117.44;5052650;28;20501;-79
2023/03/09 01:34:12;;;;;;;64.15;28.63;;;;;;;3.54;100.00;98108.69;5052976;28;20029;-79
2023/03/09 01:36:39;;;;;;;56.65;29.67;;;;;;;3.57;100.00;98113.34;5053262;28;20021;-78
2023/03/09 01:39:04;;;;;;;64.82;30.92;;;;;;;3.49;100.00;98107.34;5052828;28;20079;-78
2023/03/09 01:41:30;;;;;;;58.22;28.95;;;;;;;3.55;100.00;98124.34;5052572;28;20474;-80
2023/03/09 01:43:56;;;;;;;60.58;29.45;;;;;;;3.46;100.00;98111.19;5052557;28;20072;-78
2023/03/09 01:46:24;;;;;;;50.70;26.65;;;;;;;3.63;100.00;98125.44;5051509;28;20035;-77
2023/03/09 01:48:59;;;;;;;61.00;28.67;;;;;;;3.62;100.00;98123.91;5055162;28;20044;-76
2023/03/09 01:51:28;;;;;;;60.33;26.45;;;;;;;3.61;100.00;98120.31;5056799;28;20025;-77
2023/03/09 01:53:53;;;;;;;50.53;28.60;;;;;;;3.58;100.00;98106.41;5056663;28;20029;-77
2023/03/09 01:56:21;;;;;;;57.45;27.10;;;;;;;3.58;100.00;98103.56;5056604;28;20050;-77
2023/03/09 01:58:48;;;;;;;56.22;28.60;;;;;;;3.61;100.00;98106.19;5056293;28;20078;-77
2023/03/09 02:01:14;;;;;;;62.10;28.70;;;;;;;3.57;100.00;98113.34;5038421;28;20381;-77
2023/03/09 02:03:43;;;;;;;63.08;29.17;;;;;;;3.58;100.00;98106.41;5038370;28;20025;-76
2023/03/09 02:06:14;;;;;;;65.82;30.40;;;;;;;3.60;100.00;98106.69;5056264;28;20036;-77
2023/03/09 02:08:47;;;;;;;64.57;30.20;;;;;;;3.57;100.00;98099.22;5055292;28;20029;-77
2023/03/09 02:11:13;;;;;;;63.80;31.33;;;;;;;3.57;100.00;98093.56;5056062;28;20029;-76
2023/03/09 02:13:45;;;;;;;64.13;31.38;;;;;;;3.57;100.00;98102.03;5055077;28;20029;-77
2023/03/09 02:16:10;;;;;;;;;;;;;;;3.60;100.00;98104.63;5056669;28;20111;-76
2023/03/09 02:18:37;;;;;;;73.13;34.47;;;;;;;3.60;100.00;98095.38;5055229;28;20383;-77
2023/03/09 02:21:24;;;;;;;75.63;35.13;;;;;;;3.59;100.00;98102.31;5054824;28;20036;-77
2023/03/09 02:24:04;;;;;;;71.05;32.22;;;;;;;3.60;100.00;98098.22;5053988;28;20459;-76
2023/03/09 02:26:36;;;;;;;78.13;36.70;;;;;;;3.56;100.00;98089.97;5054067;28;20090;-77
2023/03/09 02:29:01;;;;;;;65.88;31.98;;;;;;;3.56;100.00;98095.63;5052875;28;20346;-76
2023/03/09 02:31:28;;;;;;;67.93;32.20;;;;;;;3.54;100.00;98097.38;5052784;28;20029;-76
2023/03/09 02:33:53;;;;;;;75.72;35.70;;;;;;;3.60;100.00;98099.00;5040267;28;20469;-76
2023/03/09 02:36:20;;;;;;;62.53;32.35;;;;;;;3.59;100.00;98100.25;5054897;28;20033;-76
2023/03/09 02:38:46;;;;;;;61.80;30.98;;;;;;;3.52;100.00;98091.47;5053966;28;20139;-76
2023/03/09 02:41:12;;;;;;;72.20;33.92;;;;;;;3.45;100.00;98081.41;5053552;28;20036;-78
2023/03/09 02:43:43;;;;;;;66.85;32.92;;;;;;;3.60;100.00;98107.47;5053736;28;20029;-77
2023/03/09 02:46:09;;;;;;;69.03;33.65;;;;;;;3.62;100.00;98113.38;5052336;28;20513;-77
2023/03/09 02:48:34;;;;;;;73.95;33.80;;;;;;;3.61;100.00;98103.38;5053536;28;20063;-77
2023/03/09 02:51:00;;;;;;;67.90;33.58;;;;;;;3.42;100.00;98081.63;5052099;28;20143;-77
2023/03/09 02:53:25;;;;;;;72.15;36.00;;;;;;;3.49;100.00;98093.22;5053371;28;20033;-78
2023/03/09 02:55:51;;;;;;;69.35;35.80;;;;;;;3.60;100.00;98103.84;5051934;28;20115;-78
2023/03/09 02:58:16;;;;;;;77.72;35.67;;;;;;;3.30;100.00;98060.19;5052064;28;20029;-77
2023/03/09 03:00:41;;;;;;;73.95;34.65;;;;;;;3.61;100.00;98105.41;5053090;28;20029;-77
2023/03/09 03:03:07;;;;;;;73.85;36.28;;;;;;;3.55;100.00;98096.13;5055167;28;20378;-77
2023/03/09 03:05:32;;;;;;;69.70;33.40;;;;;;;3.59;100.00;98091.00;5054043;28;20045;-78
2023/03/09 03:07:58;;;;;;;84.78;36.38;;;;;;;3.61;100.00;98102.59;5055452;28;20029;-77
2023/03/09 03:10:24;;;;;;;75.60;34.60;;;;;;;3.62;100.00;98104.16;5055217;28;20047;-83
2023/03/09 03:12:49;;;;;;;74.53;35.17;;;;;;;3.60;100.00;98112.34;5054071;28;20033;-82
2023/03/09 03:15:14;;;;;;;63.95;31.25;;;;;;;3.62;100.00;98093.59;5055053;28;20029;-83
2023/03/09 03:17:40;;;;;;;62.20;32.88;;;;;;;3.52;100.00;98089.44;5055030;28;20407;-82
2023/03/09 03:20:11;;;;;;;60.45;31.08;;;;;;;3.61;100.00;98105.41;5053729;28;20035;-81
2023/03/09 03:22:37;;;;;;;62.65;32.38;;;;;;;3.33;100.00;98065.63;5055051;28;20031;-83
2023/03/09 03:25:02;;;;;;;63.80;32.42;;;;;;;3.58;100.00;98104.34;5055073;28;20036;-82
2023/03/09 03:27:28;;;;;;;70.55;33.33;;;;;;;3.57;100.00;98107.69;5053581;28;20059;-82
2023/03/09 03:29:53;;;;;;;62.20;30.23;;;;;;;3.47;100.00;98080.91;5054987;28;20033;-79
2023/03/09 03:32:18;;;;;;;76.15;34.17;;;;;;;3.27;100.00;98056.34;5055074;28;20032;-81
2023/03/09 03:34:44;;;;;;;67.13;32.03;;;;;;;3.45;100.00;98087.03;5053434;28;20017;-84
2023/03/09 03:37:09;;;;;;;61.90;30.70;;;;;;;3.47;100.00;98084.50;5054621;28;20493;-83
2023/03/09 03:39:35;;;;;;;67.45;31.88;;;;;;;3.28;100.00;98071.22;5053353;28;20028;-84
2023/03/09 03:42:00;;;;;;;66.70;31.23;;;;;;;3.29;100.00;98086.88;5054665;28;20046;-82
2023/03/09 03:44:25;;;;;;;66.07;29.58;;;;;;;3.18;100.00;98079.09;5054456;28;20061;-83
2023/03/09 03:46:51;;;;;;;70.00;32.13;;;;;;;3.25;100.00;98104.03;5054884;28;20025;-83
2023/03/09 03:49:16;;;;;;;67.43;29.85;;;;;;;3.23;100.00;98106.56;5054492;28;20527;-83
2023/03/09 03:51:42;;;;;;;69.85;31.92;;;;;;;3.22;100.00;98108.63;5054489;28;20028;-83
2023/03/09 03:54:07;;;;;;;61.15;30.02;;;;;;;3.19;100.00;98106.78;5053164;28;20025;-84
2023/03/09 03:56:33;;;;;;;66.82;29.88;;;;;;;3.21;100.00;98103.47;5054354;28;20025;-84
2023/03/09 03:58:58;;;;;;;70.13;30.80;;;;;;;3.17;100.00;98105.75;5054438;28;20062;-92
2023/03/09 04:01:23;;;;;;;65.32;31.40;;;;;;;3.14;100.00;98107.50;5037515;28;20040;-88
2023/03/09 04:03:49;;;;;;;68.78;31.05;;;;;;;3.12;100.00;98098.78;5054294;28;20036;-84
2023/03/09 04:06:14;;;;;;;66.90;31.40;;;;;;;3.16;100.00;98102.16;5056409;28;20351;-86
2023/03/09 04:08:39;;;;;;;72.47;30.50;;;;;;;3.09;100.00;98096.94;5054999;28;20096;-78
2023/03/09 04:11:07;;;;;;;71.95;33.33;;;;;;;3.14;100.00;98099.03;5053642;28;20374;-79
2023/03/09 04:13:32;;;;;;;81.18;34.83;;;;;;;3.08;100.00;98092.53;5052747;28;20484;-79
2023/03/09 04:15:57;;;;;;;75.78;32.88;;;;;;;3.00;100.00;98085.81;5053808;28;20029;-81
2023/03/09 04:18:23;;;;;;;77.10;32.75;;;;;;;3.16;100.00;98099.31;5052505;28;20112;-80
2023/03/09 04:20:48;;;;;;;69.55;31.92;;;;;;;3.06;100.00;98069.72;5053670;28;20048;-80
2023/03/09 04:23:14;;;;;;;73.20;33.85;;;;;;;3.07;100.00;98065.63;5054027;28;20485;-80
2023/03/09 04:25:39;;;;;;;69.25;31.45;;;;;;;3.14;100.00;98070.03;5053525;28;20021;-79
2023/03/09 04:28:05;;;;;;;81.00;34.70;;;;;;;3.13;100.00;98074.91;5053722;28;20021;-78
2023/03/09 04:30:30;;;;;;;72.25;32.05;;;;;;;3.13;100.00;98079.81;5035690;28;20516;-80
2023/03/09 04:32:56;;;;;;;81.93;33.63;;;;;;;2.92;100.00;98027.50;5053562;28;20529;-79
2023/03/09 04:35:21;;;;;;;75.32;33.22;;;;;;;3.13;100.00;98063.63;5053447;28;20024;-79
2023/03/09 04:37:47;;;;;;;82.43;34.35;;;;;;;3.13;100.00;98074.16;5052241;28;20059;-80
2023/03/09 04:40:13;;;;;;;73.57;32.10;;;;;;;3.06;100.00;98058.44;5053591;28;20081;-81
2023/03/09 04:42:39;;;;;;;71.95;32.70;;;;;;;3.10;100.00;98056.16;5035241;28;20044;-81
2023/03/09 04:45:04;;;;;;;76.80;34.35;;;;;;;3.02;100.00;98045.81;5053136;28;20039;-80
2023/03/09 04:47:30;;;;;;;77.45;35.20;;;;;;;2.97;100.00;98050.13;5052986;28;20075;-80
2023/03/09 04:49:56;;;;;;;71.55;32.92;;;;;;;3.02;100.00;98031.72;5053587;28;20036;-81
2023/03/09 04:52:21;;;;;;;78.00;34.75;;;;;;;3.17;100.00;98055.72;5053412;28;20115;-80
2023/03/09 04:54:47;;;;;;;82.72;35.15;;;;;;;2.83;100.00;98014.34;5053689;28;20487;-79
2023/03/09 04:57:13;;;;;;;75.82;33.75;;;;;;;3.23;100.00;98061.41;5054052;28;20105;-79
2023/03/09 04:59:38;;;;;;;77.28;33.58;;;;;;;3.15;100.00;98046.97;5035464;28;20033;-81
2023/03/09 05:02:04;;;;;;;85.43;37.83;;;;;;;3.21;100.00;98053.47;5053258;28;20035;-79
2023/03/09 05:04:29;;;;;;;95.38;39.45;;;;;;;3.20;100.00;98049.09;5053409;28;20035;-80
2023/03/09 05:06:55;;;;;;;89.43;36.88;;;;;;;3.18;100.00;98053.69;5052955;28;20470;-80
2023/03/09 05:09:20;;;;;;;97.68;39.85;;;;;;;3.08;100.00;98035.38;5052997;28;20091;-79
2023/03/09 05:11:51;;;;;;;89.80;37.25;;;;;;;3.13;100.00;98043.88;5052943;28;20059;-80
2023/03/09 05:14:16;;;;;;;96.45;39.17;;;;;;;3.13;100.00;98055.16;5053091;28;20032;-80
2023/03/09 05:16:41;;;;;;;86.07;37.42;;;;;;;3.11;100.00;98040.78;5052712;28;20090;-80
2023/03/09 05:19:09;;;;;;;89.93;36.15;;;;;;;3.04;100.00;98027.13;5052977;28;20074;-79
2023/03/09 05:21:35;;;;;;;75.57;33.20;;;;;;;3.20;100.00;98040.63;5052859;28;20029;-78
2023/03/09 05:24:04;;;;;;;86.13;36.38;;;;;;;2.96;100.00;98023.19;5053575;28;20036;-79
2023/03/09 05:26:30;;;;;;;84.80;35.40;;;;;;;3.06;100.00;98035.88;5055962;28;20133;-79
2023/03/09 05:28:56;;;;;;;85.57;36.38;;;;;;;3.12;100.00;98047.22;5055747;28;20045;-80
2023/03/09 05:31:24;;;;;;;76.28;34.80;;;;;;;3.00;100.00;98034.25;5056819;28;20435;-79
2023/03/09 05:33:52;;;;;;;79.78;34.28;;;;;;;3.08;100.00;98038.19;5056866;28;20083;-84
2023/03/09 05:36:20;;;;;;;74.68;31.85;;;;;;;3.11;100.00;98049.25;5055983;28;20096;-87
2023/03/09 05:39:01;;;;;;;72.13;31.83;;;;;;;3.14;100.00;98051.06;5057582;28;20044;-87
2023/03/09 05:41:29;;;;;;;69.97;32.85;;;;;;;3.06;100.00;98038.69;5039438;28;20041;-86
2023/03/09 05:43:55;;;;;;;77.65;33.47;;;;;;;3.09;100.00;98040.50;5056825;28;20036;-85
2023/03/09 05:46:23;;;;;;;74.78;31.20;;;;;;;3.07;100.00;98040.25;5058473;28;20113;-86
2023/03/09 05:48:51;;;;;;;66.63;28.88;;;;;;;3.14;100.00;98045.44;5063000;28;20183;-83
2023/03/09 05:51:18;;;;;;;70.95;30.60;;;;;;;3.12;100.00;98039.53;5055579;28;20044;-85
2023/03/09 05:53:47;;;;;;;80.43;35.45;;;;;;;2.99;100.00;98036.28;5055347;28;20028;-85
2023/03/09 05:56:13;;;;;;;69.13;28.52;;;;;;;3.04;100.00;98044.03;5055316;28;20028;-82
2023/03/09 05:58:40;;;;;;;63.83;28.73;;;;;;;3.02;100.00;98048.66;5055271;28;20060;-82
2023/03/09 06:01:27;;;;;;;63.85;28.05;;;;;;;3.05;100.00;98056.09;5055564;28;20413;-83
2023/03/09 06:03:54;;;;;;;63.75;26.85;;;;;;;3.06;100.00;98049.97;5038775;28;20387;-83
2023/03/09 06:06:26;;;;;;;58.13;26.33;;;;;;;3.08;100.00;98036.13;5039178;28;20538;-86
2023/03/09 06:08:53;;;;;;;67.22;27.08;;;;;;;3.11;100.00;98046.44;5057543;28;20051;-86
2023/03/09 06:11:19;;;;;;;60.45;27.70;;;;;;;3.04;100.00;98043.25;5056911;28;20033;-84
2023/03/09 06:13:46;;;;;;;66.15;27.55;;;;;;;3.02;100.00;98040.97;5066784;28;20037;-81
2023/03/09 06:16:16;;;;;;;61.63;27.55;;;;;;;3.06;100.00;98044.34;5066175;28;20041;-81
2023/03/09 06:18:43;;;;;;;56.05;26.50;;;;;;;2.99;100.00;98039.13;5028961;28;20037;-84
2023/03/09 06:21:09;;;;;;;57.20;24.02;;;;;;;3.06;100.00;98038.69;5056097;28;20123;-80
2023/03/09 06:23:36;;;;;;;59.92;24.30;;;;;;;3.06;100.00;98044.34;5056054;28;20028;-79
2023/03/09 06:26:04;;;;;;;53.90;22.90;;;;;;;3.04;100.00;98041.22;5037655;28;20036;-78
2023/03/09 06:28:30;;;;;;;49.97;22.83;;;;;;;2.99;100.00;98039.13;5054290;28;20098;-79
2023/03/09 06:30:55;;;;;;;49.30;21.50;;;;;;;3.05;100.00;98050.47;5054514;28;20161;-78
2023/03/09 06:33:21;;;;;;;42.95;21.45;;;;;;;2.82;100.00;98021.25;5053894;28;20469;-80
2023/03/09 06:35:47;;;;;;;51.58;21.23;;;;;;;2.99;100.00;98044.75;5053812;28;20025;-79
2023/03/09 06:38:12;;;;;;;45.03;20.92;;;;;;;2.91;100.00;98034.41;5053534;28;20064;-79
2023/03/09 06:40:38;;;;;;;47.47;20.67;;;;;;;2.99;100.00;98056.03;5052560;28;20025;-77
2023/03/09 06:43:03;;;;;;;44.35;19.17;;;;;;;2.89;100.00;98040.53;5053175;28;20037;-79
2023/03/09 06:45:29;;;;;;;38.42;18.40;;;;;;;2.94;100.00;98053.16;5052050;28;20466;-78
2023/03/09 06:47:55;;;;;;;42.78;19.83;;;;;;;2.93;100.00;98055.22;5035384;28;20062;-79
2023/03/09 06:50:21;;;;;;;43.72;20.80;;;;;;;2.89;100.00;98049.00;5054529;28;20021;-78
2023/03/09 06:52:47;;;;;;;43.92;22.40;;;;;;;2.88;100.00;98055.16;5055637;28;20036;-78
2023/03/09 06:55:12;;;;;;;40.67;19.65;;;;;;;2.78;100.00;98043.25;5037401;28;20036;-78
2023/03/09 06:57:38;;;;;;;41.67;19.60;;;;;;;2.84;100.00;98063.03;5055436;28;20021;-78
2023/03/09 07:00:04;;;;;;;44.30;19.17;;;;;;;2.71;100.00;98057.78;5055144;28;20025;-78
2023/03/09 07:02:31;;;;;;;43.55;18.52;;;;;;;2.78;100.00;98057.34;5055149;28;20017;-79
2023/03/09 07:04:56;;;;;;;38.47;19.20;;;;;;;2.68;100.00;98034.19;5055107;28;20083;-77
2023/03/09 07:07:22;;;;;;;37.95;17.48;;;;;;;2.65;100.00;98031.56;5054441;28;20059;-79
2023/03/09 07:09:49;;;;;;;38.40;18.25;;;;;;;2.71;100.00;98033.19;5035349;28;20076;-82
2023/03/09 07:12:16;;;;;;;38.75;17.08;;;;;;;2.88;100.00;98058.75;5067208;28;20037;-81
2023/03/09 07:14:41;;;;;;;36.17;16.52;;;;;;;2.85;100.00;98039.22;5060423;28;20041;-81
2023/03/09 07:17:25;;;;;;;37.60;17.35;;;;;;;2.84;100.00;98029.19;5055344;28;20068;-81
2023/03/09 07:19:53;;;;;;;31.17;15.25;;;;;;;2.82;100.00;98026.13;5056578;28;20428;-75
2023/03/09 07:22:19;;;;;;;28.83;15.48;;;;;;;3.04;100.00;98060.19;5052668;28;20512;-78
2023/03/09 07:24:44;;;;;;;34.13;15.50;;;;;;;3.05;100.00;98059.69;5053565;28;20021;-78
2023/03/09 07:27:11;;;;;;;34.72;15.55;;;;;;;3.07;100.00;98068.44;5053506;28;20474;-75
2023/03/09 07:29:38;;;;;;;31.58;15.80;;;;;;;3.12;100.00;98061.31;5054503;28;20082;-78
2023/03/09 07:32:04;;;;;;;34.40;15.40;;;;;;;3.07;100.00;98068.44;5054498;28;20474;-78
2023/03/09 07:34:31;;;;;;;31.98;14.20;;;;;;;3.12;100.00;98064.91;5054955;28;20024;-78
2023/03/09 07:36:57;;;;;;;32.00;14.50;;;;;;;3.11;100.00;98065.41;5036792;28;20025;-78
2023/03/09 07:39:22;;;;;;;31.27;15.45;;;;;;;3.08;100.00;98072.06;5054922;28;20090;-74
2023/03/09 07:41:47;;;;;;;32.63;15.82;;;;;;;3.11;100.00;98056.94;5053887;28;20037;-75
2023/03/09 07:44:13;;;;;;;36.50;16.45;;;;;;;3.10;100.00;98053.34;5054158;28;20037;-75
2023/03/09 07:46:38;;;;;;;38.90;17.08;;;;;;;3.13;100.00;98065.69;5053826;28;20025;-77
2023/03/09 07:49:04;;;;;;;28.33;15.68;;;;;;;3.12;100.00;98058.50;5054442;28;20466;-74
2023/03/09 07:51:31;;;;;;;28.00;14.55;;;;;;;3.10;100.00;98052.56;5054095;28;20032;-75
2023/03/09 07:53:57;;;;;;;27.83;14.88;;;;;;;3.10;100.00;98052.56;5053892;28;20013;-74
2023/03/09 07:56:23;;;;;;;27.80;13.98;;;;;;;3.18;100.00;98057.25;5052652;28;20570;-75
2023/03/09 07:58:51;;;;;;;30.13;15.50;;;;;;;3.22;100.00;98057.84;5053810;28;20102;-77
2023/03/09 08:01:18;;;;;;;26.27;13.48;;;;;;;3.32;100.00;98049.97;5052614;28;20028;-74
2023/03/09 08:03:47;;;;;;;26.25;13.75;;;;;;;3.45;100.00;98075.75;5035988;28;20029;-74
2023/03/09 08:06:13;;;;;;;24.08;12.30;;;;;;;3.58;100.00;98067.66;5019637;28;20056;-76
2023/03/09 08:08:39;;;;;;;25.48;13.45;;;;;;;3.59;100.00;98071.25;5052467;28;20398;-75
2023/03/09 08:11:05;;;;;;;27.35;13.70;;;;;;;3.60;100.00;98072.81;5052506;28;20032;-73
2023/03/09 08:13:32;;;;;;;22.70;12.55;;;;;;;3.64;100.00;98073.34;5052477;28;20107;-74
2023/03/09 08:16:01;;;;;;;24.27;11.70;;;;;;;3.63;100.00;98074.63;5052380;28;20047;-73
2023/03/09 08:18:27;;;;;;;34.75;14.30;;;;;;;3.53;100.00;98074.03;5053797;28;20025;-73
2023/03/09 08:20:53;;;;;;;27.30;10.65;;;;;;;3.53;100.00;98087.34;5040854;28;20048;-73
2023/03/09 08:23:19;;;;;;;21.55;11.70;;;;;;;3.55;100.00;98087.63;5032040;28;20041;-75
2023/03/09 08:25:53;;;;;;;24.42;13.70;;;;;;;3.37;100.00;98077.47;5031678;28;20037;-75
2023/03/09 08:28:21;;;;;;;24.98;12.93;;;;;;;3.45;100.00;98092.69;5033671;28;20021;-74
2023/03/09 08:30:48;;;;;;;25.38;11.27;;;;;;;3.51;100.00;98098.38;5015941;28;20037;-74
2023/03/09 08:33:13;;;;;;;20.48;10.93;;;;;;;3.55;100.00;98104.59;5032920;28;20037;-76
2023/03/09 08:35:39;;;;;;;19.30;9.77;;;;;;;3.48;100.00;98100.16;5035253;28;20411;-74
2023/03/09 08:38:04;;;;;;;18.33;9.13;;;;;;;3.43;100.00;98117.03;5053296;28;20032;-73
2023/03/09 08:40:31;;;;;;;15.52;8.80;;;;;;;3.46;100.00;98116.03;5053471;28;20056;-75
2023/03/09 08:42:56;;;;;;;23.15;11.80;;;;;;;3.34;100.00;98103.84;5051485;28;20057;-74
2023/03/09 08:45:23;;;;;;;29.25;12.98;;;;;;;3.40;100.00;98124.47;5053238;28;20032;-78
2023/03/09 08:47:49;;;;;;;16.02;9.90;;;;;;;3.27;100.00;98124.06;5035493;28;20079;-77
2023/03/09 08:50:18;;;;;;;14.48;9.57;;;;;;;3.26;100.00;98136.63;5053177;28;20428;-76
2023/03/09 08:52:44;;;;;;;16.23;9.63;;;;;;;3.28;100.00;98150.25;5053024;28;20527;-75
2023/03/09 08:55:11;;;;;;;15.32;9.40;;;;;;;3.29;100.00;98152.56;5053499;28;20025;-72
2023/03/09 08:57:36;;;;;;;14.65;8.07;;;;;;;3.20;100.00;98142.19;5052121;28;20024;-72
2023/03/09 09:00:03;;;;;;;15.95;8.77;;;;;;;3.41;100.00;98157.06;5053350;28;20367;-72
2023/03/09 09:02:29;;;;;;;17.30;10.30;;;;;;;3.46;100.00;98149.94;5050742;28;20513;-72
2023/03/09 09:04:56;;;;;;;16.73;10.07;;;;;;;3.45;100.00;98148.38;5051450;28;20462;-74
2023/03/09 09:07:22;;;;;;;16.42;9.27;;;;;;;3.47;100.00;98143.00;5052671;28;20033;-72
2023/03/09 09:09:48;;;;;;;18.98;10.55;;;;;;;3.55;100.00;98146.94;5052657;28;20045;-74
2023/03/09 09:12:14;;;;;;;18.52;9.98;;;;;;;3.56;100.00;98151.31;5035213;28;20033;-73
2023/03/09 09:14:42;;;;;;;18.75;10.02;;;;;;;3.67;100.00;98161.94;5051465;28;20390;-73
2023/03/09 09:17:08;;;;;;;16.52;9.43;;;;;;;3.85;100.00;98182.16;5051462;28;20060;-73
2023/03/09 09:19:45;;;;;;;16.15;9.30;;;;;;;3.97;100.00;98183.06;5052728;28;20390;-72
2023/03/09 09:22:11;;;;;;;16.27;9.10;;;;;;;3.47;100.00;98111.97;5051617;28;20052;-72
2023/03/09 09:24:37;;;;;;;15.95;9.15;;;;;;;4.03;100.00;98186.69;5051229;28;20037;-73
2023/03/09 09:27:07;;;;;;;17.40;10.00;;;;;;;4.20;100.00;98198.94;5051604;28;20059;-75
2023/03/09 09:29:36;;;;;;;15.43;9.63;;;;;;;4.28;100.00;98205.69;5051653;28;20484;-74
2023/03/09 09:32:03;;;;;;;16.15;8.70;;;;;;;4.47;100.00;98208.91;5052766;28;20033;-74
2023/03/09 09:34:32;;;;;;;15.13;9.27;;;;;;;4.63;100.00;98208.25;5052561;28;20048;-75
2023/03/09 09:37:00;;;;;;;12.80;8.98;;;;;;;4.79;100.00;98204.00;5052421;28;20374;-74
2023/03/09 09:39:26;;;;;;;14.27;9.60;;;;;;;4.83;100.00;98222.28;5052572;28;20029;-72
2023/03/09 09:41:55;;;;;;;13.77;9.23;;;;;;;4.83;100.00;98215.84;5051414;28;20476;-73
2023/03/09 09:44:33;;;;;;;15.55;9.02;;;;;;;4.75;100.00;98224.03;5034621;28;20489;-72
2023/03/09 09:47:03;;;;;;;14.20;9.52;;;;;;;4.76;100.00;98217.06;5051174;28;20065;-72
2023/03/09 09:49:31;;;;;;;73.80;16.20;;;;;;;4.71;100.00;98237.63;5052300;28;20079;-72
2023/03/09 09:52:19;;;;;;;51.72;14.80;;;;;;;4.68;100.00;98230.16;5051246;28;20039;-72
2023/03/09 09:54:48;;;;;;;36.97;11.77;;;;;;;4.73;100.00;98229.41;5051493;28;20377;-73
2023/03/09 09:57:36;;;;;;;19.05;9.98;;;;;;;4.80;100.00;98254.41;5052767;28;20078;-72
2023/03/09 10:00:14;;;;;;;16.27;10.15;;;;;;;4.89;100.00;98274.03;5054546;28;20033;-72
2023/03/09 10:02:58;;;;;;;15.80;9.52;;;;;;;4.90;100.00;98271.97;5052441;28;20108;-77
2023/03/09 10:05:53;;;;;;;13.88;8.25;;;;;;;4.92;100.00;98277.88;5052835;28;20063;-72
2023/03/09 10:08:24;;;;;;;13.63;9.45;;;;;;;4.86;100.00;98294.03;5051599;28;20065;-73
2023/03/09 10:10:51;;;;;;;16.02;9.55;;;;;;;4.78;100.00;98282.44;5055736;28;20037;-74
2023/03/09 10:13:28;;;;;;;11.23;8.50;;;;;;;4.80;100.00;98296.09;5038095;28;20051;-73
2023/03/09 10:16:15;;;;;;;18.17;10.05;;;;;;;4.89;100.00;98301.53;5054839;28;20068;-73
2023/03/09 10:18:45;;;;;;;13.90;8.40;;;;;;;4.83;100.00;98309.22;5055804;28;20039;-73
2023/03/09 10:21:19;;;;;;;12.80;8.93;;;;;;;4.73;100.00;98322.00;5054536;28;20025;-74
2023/03/09 10:23:45;;;;;;;15.70;9.80;;;;;;;4.74;100.00;98321.50;5054561;28;20028;-73
2023/03/09 10:26:23;;;;;;;15.07;9.68;;;;;;;4.78;100.00;98336.19;5054764;28;20494;-73
2023/03/09 10:28:50;;;;;;;17.17;10.05;;;;;;;4.85;100.00;98358.38;5055622;28;20474;-74
2023/03/09 10:31:25;;;;;;;34.67;13.40;;;;;;;4.96;100.00;98359.75;5054356;28;20049;-72
2023/03/09 10:34:03;;;;;;;45.83;13.10;;;;;;;5.02;100.00;98358.50;5054926;28;20135;-72
2023/03/09 10:36:33;;;;;;;24.17;10.90;;;;;;;5.05;100.00;98370.88;5055650;28;20033;-75
2023/03/09 10:39:14;;;;;;;15.70;9.57;;;;;;;5.06;100.00;98372.41;5053803;28;20037;-72
2023/03/09 10:41:41;;;;;;;14.48;9.60;;;;;;;4.94;100.00;98371.56;5053944;28;20056;-74
2023/03/09 10:44:07;;;;;;;26.10;10.50;;;;;;;5.08;100.00;98395.34;5055279;28;20389;-73
2023/03/09 10:47:00;;;;;;;21.67;9.00;;;;;;;5.13;100.00;98398.22;5037252;28;20463;-74
2023/03/09 10:49:26;;;;;;;23.05;10.20;;;;;;;5.20;100.00;98397.75;5037478;28;20116;-74
2023/03/09 10:52:01;;;;;;;20.42;9.45;;;;;;;5.30;100.00;98410.44;5055221;28;20104;-75
2023/03/09 10:54:38;;;;;;;12.05;8.30;;;;;;;5.42;100.00;98414.13;5054096;28;20079;-73
2023/03/09 10:57:24;;;;;;;12.48;8.38;;;;;;;5.45;100.00;98413.13;5055468;28;20066;-73
2023/03/09 11:00:09;;;;;;;15.30;8.10;;;;;;;5.50;100.00;98422.97;5054112;28;20386;-74
2023/03/09 11:02:38;;;;;;;14.07;9.85;;;;;;;5.52;100.00;98398.50;5053545;28;20025;-74
2023/03/09 11:05:27;;;;;;;12.73;8.30;;;;;;;5.65;100.00;98427.16;5054848;28;20470;-76
2023/03/09 11:07:55;;;;;;;14.70;9.63;;;;;;;5.66;100.00;98425.88;5055135;28;20025;-75
2023/03/09 11:10:38;;;;;;;14.38;9.82;;;;;;;5.73;100.00;98448.09;5054119;28;20032;-76
2023/03/09 11:13:04;;;;;;;14.00;9.77;;;;;;;5.74;100.00;98443.22;5053625;28;20037;-76
2023/03/09 11:15:34;;;;;;;15.05;8.88;;;;;;;5.68;100.00;98460.16;5055048;28;20021;-75
2023/03/09 11:18:02;;;;;;;12.35;8.40;;;;;;;5.72;100.00;98457.09;5053689;28;20053;-74
2023/03/09 11:20:39;;;;;;;13.85;9.43;;;;;;;5.69;100.00;98463.78;5036637;28;20471;-74
2023/03/09 11:23:24;;;;;;;15.45;10.23;;;;;;;5.63;100.00;98471.47;5036871;28;20489;-73